Anchor Point, AK (99556)

8:24 AM AKST on March 03, 2015 (GMT -0900)
KAKHOMER5 | Change Station
CLOSE
Current Station
Personal Weather Station
Location: Homer, AK
Elevation: 1152 ft
Nearby Weather Stations

Elev 1152 ft 59.67 °N, 151.49 °W | Updated 31 seconds ago

Overcast
Overcast
39.1 °F
Feels Like 39 °F
N
1.0
Wind Variable Wind from NNW
Gusts 3.0 mph

Today
High -- | Low -- °F
--% Chance of Precip.
Yesterday
High -- | Low -- °F
Precip. -- in
7:59 AM 6:39 PM
Waxing Gibbous, 96% visible
Pressure 29.94 in
Visibility 10.0 miles
Clouds Overcast 5500 ft
Windchill 39 °F
Dew Point 34 °F
Humidity 83%
Rainfall 0.02 in
Snow Depth Not available.
UV 0 out of 12
Pollen Not available.
Air Quality Not available.
Flu Activity Not available.
METAR PAHO 031653Z 00000KT 10SM OVC055 06/03 A2993 RMK SLP136 T00560028 VIA AUTODIAL

More Conditions Fewer Conditions

Pressure 29.94 in
Visibility 10.0 miles
Clouds Overcast 5500 ft
Windchill 39 °F
Dew Point 34 °F
Humidity 83%
Rainfall 0.02 in
Snow Depth Not available.
UV 0 out of 12
Pollen Not available.
Air Quality Not available.
Flu Activity Not available.
METAR PAHO 031653Z 00000KT 10SM OVC055 06/03 A2993 RMK SLP136 T00560028 VIA AUTODIAL

More Conditions Fewer Conditions

10-Day Weather Forecast

Almanac

Astronomy

Mar. 03, 2015 Rise Set
Actual Time
Civil Twilight
Nautical Twilight
Astronomical Twilight
Moon
Length of Visible Light
Length of Day
Tomorrow will be .
, % of the Moon is Illuminated

Today's Extremes

State Highs State Lows

Community

WunderPhotos

Upload Photos

1,802,174 photos uploaded!

WunderBlogs® & News

Nearby

Air Quality

  Air Quality AQ Index Pollutant
Not available.

Snow Depth

Station Depth Elevation

Earthquake Activity

City Distance Mag. Time & Date
Minimum magnitude displayed is 2.5.

Coastal Water Temperatures

Place Temperature

Nearby Weather Stations